createdAt,value
2023-02-06T00:00:51.386Z,100.00
2023-02-06T00:03:17.914Z,100.00
2023-02-06T00:05:44.385Z,100.00
2023-02-06T00:08:10.763Z,100.00
2023-02-06T00:10:37.127Z,100.00
2023-02-06T00:13:03.515Z,100.00
2023-02-06T00:15:29.903Z,100.00
2023-02-06T00:17:56.216Z,100.00
2023-02-06T00:20:22.505Z,100.00
2023-02-06T00:22:48.807Z,100.00
2023-02-06T00:25:15.133Z,100.00
2023-02-06T00:27:41.471Z,100.00
2023-02-06T00:30:08.120Z,100.00
2023-02-06T00:32:35.331Z,100.00
2023-02-06T00:35:01.738Z,100.00
2023-02-06T00:37:28.070Z,100.00
2023-02-06T00:39:54.396Z,100.00
2023-02-06T00:42:20.786Z,100.00
2023-02-06T00:44:47.096Z,100.00
2023-02-06T00:47:14.922Z,100.00
2023-02-06T00:49:41.262Z,100.00
2023-02-06T00:52:08.771Z,100.00
2023-02-06T00:54:35.132Z,100.00
2023-02-06T00:57:01.475Z,100.00
2023-02-06T00:59:27.794Z,100.00
2023-02-06T01:01:54.214Z,100.00
2023-02-06T01:04:20.705Z,100.00
2023-02-06T01:06:47.126Z,100.00
2023-02-06T01:09:13.463Z,100.00
2023-02-06T01:11:39.792Z,100.00
2023-02-06T01:14:06.249Z,100.00
2023-02-06T01:16:32.698Z,100.00
2023-02-06T01:18:58.989Z,100.00
2023-02-06T01:21:25.569Z,100.00
2023-02-06T01:23:53.889Z,100.00
2023-02-06T01:26:22.642Z,100.00
2023-02-06T01:28:49.619Z,100.00
2023-02-06T01:31:23.255Z,100.00
2023-02-06T01:33:50.978Z,100.00
2023-02-06T01:36:18.630Z,100.00
2023-02-06T01:38:45.699Z,100.00
2023-02-06T01:41:13.839Z,100.00
2023-02-06T01:43:44.895Z,100.00
2023-02-06T01:46:11.257Z,100.00
2023-02-06T01:48:43.029Z,100.00
2023-02-06T01:51:15.009Z,100.00
2023-02-06T01:53:43.792Z,100.00
2023-02-06T01:56:11.652Z,100.00
2023-02-06T01:58:43.566Z,100.00
2023-02-06T02:01:10.905Z,100.00
2023-02-06T02:03:44.243Z,100.00
2023-02-06T02:06:14.333Z,100.00
2023-02-06T02:08:43.839Z,100.00
2023-02-06T02:11:16.208Z,100.00
2023-02-06T02:13:43.549Z,100.00
2023-02-06T02:16:35.168Z,100.00
2023-02-06T02:19:12.269Z,100.00
2023-02-06T02:22:09.658Z,100.00
2023-02-06T02:24:51.439Z,100.00
2023-02-06T02:27:36.983Z,100.00
2023-02-06T02:30:34.410Z,100.00
2023-02-06T02:33:31.803Z,100.00
2023-02-06T02:36:28.289Z,100.00
2023-02-06T02:39:17.539Z,100.00
2023-02-06T02:42:08.784Z,100.00
2023-02-06T02:44:55.858Z,100.00
2023-02-06T02:47:28.368Z,100.00
2023-02-06T02:49:57.901Z,100.00
2023-02-06T02:52:24.708Z,100.00
2023-02-06T02:54:51.048Z,100.00
2023-02-06T02:57:24.687Z,100.00
2023-02-06T02:59:51.945Z,100.00
2023-02-06T03:02:30.659Z,100.00
2023-02-06T03:05:01.957Z,100.00
2023-02-06T03:07:45.142Z,100.00
2023-02-06T03:10:30.777Z,100.00
2023-02-06T03:13:09.152Z,100.00
2023-02-06T03:15:52.997Z,100.00
2023-02-06T03:18:30.882Z,100.00
2023-02-06T03:21:00.021Z,100.00
2023-02-06T03:23:31.489Z,100.00
2023-02-06T03:26:01.955Z,100.00
2023-02-06T03:28:38.511Z,100.00
2023-02-06T03:31:09.513Z,100.00
2023-02-06T03:33:40.586Z,100.00
2023-02-06T03:36:09.892Z,100.00
2023-02-06T03:38:36.407Z,100.00
2023-02-06T03:41:04.560Z,100.00
2023-02-06T03:43:31.963Z,100.00
2023-02-06T03:46:05.500Z,100.00
2023-02-06T03:48:40.654Z,100.00
2023-02-06T03:51:16.096Z,100.00
2023-02-06T03:53:44.665Z,100.00
2023-02-06T03:56:17.168Z,100.00
2023-02-06T03:58:43.547Z,100.00
2023-02-06T04:01:11.833Z,100.00
2023-02-06T04:03:38.229Z,100.00
2023-02-06T04:06:04.596Z,100.00
2023-02-06T04:08:30.951Z,100.00
2023-02-06T04:10:57.335Z,100.00
2023-02-06T04:13:23.684Z,100.00
2023-02-06T04:15:52.463Z,100.00
2023-02-06T04:18:18.888Z,100.00
2023-02-06T04:20:45.184Z,100.00
2023-02-06T04:23:11.529Z,100.00
2023-02-06T04:25:38.137Z,100.00
2023-02-06T04:28:04.799Z,100.00
2023-02-06T04:30:31.203Z,100.00
2023-02-06T04:32:57.516Z,100.00
2023-02-06T04:35:23.912Z,100.00
2023-02-06T04:37:50.276Z,100.00
2023-02-06T04:40:16.884Z,100.00
2023-02-06T04:42:43.214Z,100.00
2023-02-06T04:45:09.652Z,100.00
2023-02-06T04:47:36.035Z,100.00
2023-02-06T04:50:03.693Z,100.00
2023-02-06T04:52:30.004Z,100.00
2023-02-06T04:54:56.366Z,100.00
2023-02-06T04:57:23.569Z,100.00
2023-02-06T04:59:49.900Z,100.00
2023-02-06T05:02:16.273Z,100.00
2023-02-06T05:04:42.661Z,100.00
2023-02-06T05:07:08.964Z,100.00
2023-02-06T05:09:35.276Z,100.00
2023-02-06T05:12:01.578Z,100.00
2023-02-06T05:14:27.923Z,100.00
2023-02-06T05:16:54.260Z,100.00
2023-02-06T05:19:20.614Z,100.00
2023-02-06T05:21:47.082Z,100.00
2023-02-06T05:24:13.413Z,100.00
2023-02-06T05:26:39.703Z,100.00
2023-02-06T05:29:07.024Z,100.00
2023-02-06T05:31:33.578Z,100.00
2023-02-06T05:33:59.975Z,100.00
2023-02-06T05:36:26.369Z,100.00
2023-02-06T05:38:52.756Z,100.00
2023-02-06T05:41:19.080Z,100.00
2023-02-06T05:43:45.573Z,100.00
2023-02-06T05:46:12.892Z,100.00
2023-02-06T05:48:39.944Z,100.00
2023-02-06T05:51:06.500Z,100.00
2023-02-06T05:53:32.844Z,100.00
2023-02-06T05:55:59.150Z,100.00
2023-02-06T05:58:25.575Z,100.00
2023-02-06T06:00:51.893Z,100.00
2023-02-06T06:03:19.024Z,100.00
2023-02-06T06:05:45.789Z,100.00
2023-02-06T06:08:12.196Z,100.00
2023-02-06T06:10:38.601Z,100.00
2023-02-06T06:13:04.941Z,100.00
2023-02-06T06:15:31.266Z,100.00
2023-02-06T06:17:57.600Z,100.00
2023-02-06T06:20:23.962Z,100.00
2023-02-06T06:22:50.561Z,100.00
2023-02-06T06:25:16.997Z,100.00
2023-02-06T06:27:43.325Z,100.00
2023-02-06T06:30:10.502Z,100.00
2023-02-06T06:32:36.868Z,100.00
2023-02-06T06:35:03.587Z,100.00
2023-02-06T06:37:30.024Z,100.00
2023-02-06T06:39:56.341Z,100.00
2023-02-06T06:42:22.633Z,100.00
2023-02-06T06:44:48.941Z,100.00
2023-02-06T06:47:15.332Z,100.00
2023-02-06T06:49:41.641Z,100.00
2023-02-06T06:52:19.542Z,100.00
2023-02-06T06:54:52.339Z,100.00
2023-02-06T06:57:19.145Z,100.00
2023-02-06T06:59:45.504Z,100.00
2023-02-06T07:02:11.860Z,100.00
2023-02-06T07:04:38.232Z,100.00
2023-02-06T07:07:04.886Z,100.00
2023-02-06T07:09:31.237Z,100.00
2023-02-06T07:11:57.559Z,100.00
2023-02-06T07:14:23.981Z,100.00
2023-02-06T07:16:50.346Z,100.00
2023-02-06T07:19:17.085Z,100.00
2023-02-06T07:21:43.594Z,100.00
2023-02-06T07:24:09.932Z,100.00
2023-02-06T07:26:36.283Z,100.00
2023-02-06T07:29:02.701Z,100.00
2023-02-06T07:31:29.178Z,100.00
2023-02-06T07:33:55.536Z,100.00
2023-02-06T07:36:21.848Z,100.00
2023-02-06T07:38:48.777Z,100.00
2023-02-06T07:41:15.921Z,100.00
2023-02-06T07:43:42.217Z,100.00
2023-02-06T07:46:08.595Z,100.00
2023-02-06T07:48:34.926Z,100.00
2023-02-06T07:51:09.319Z,100.00
2023-02-06T07:53:37.010Z,100.00
2023-02-06T07:56:10.546Z,100.00
2023-02-06T07:58:36.948Z,100.00
2023-02-06T08:01:05.350Z,100.00
2023-02-06T08:03:32.251Z,100.00
2023-02-06T08:05:58.733Z,100.00
2023-02-06T08:08:25.447Z,100.00
2023-02-06T08:10:52.245Z,100.00
2023-02-06T08:13:18.560Z,100.00
2023-02-06T08:15:44.961Z,100.00
2023-02-06T08:18:11.302Z,100.00
2023-02-06T08:20:37.620Z,100.00
2023-02-06T08:23:04.110Z,100.00
2023-02-06T08:25:30.456Z,100.00
2023-02-06T08:27:56.852Z,100.00
2023-02-06T08:30:24.186Z,100.00
2023-02-06T08:32:50.648Z,100.00
2023-02-06T08:35:17.216Z,100.00
2023-02-06T08:37:43.498Z,100.00
2023-02-06T08:40:10.585Z,100.00
2023-02-06T08:42:36.942Z,100.00
2023-02-06T08:45:03.582Z,100.00
2023-02-06T08:47:29.892Z,100.00
2023-02-06T08:49:56.217Z,100.00
2023-02-06T08:52:23.185Z,100.00
2023-02-06T08:54:51.435Z,100.00
2023-02-06T08:57:17.741Z,100.00
2023-02-06T08:59:44.155Z,100.00
2023-02-06T09:02:11.572Z,100.00
2023-02-06T09:04:38.934Z,100.00
2023-02-06T09:07:05.242Z,100.00
2023-02-06T09:09:31.573Z,100.00
2023-02-06T09:12:03.100Z,100.00
2023-02-06T09:14:30.303Z,100.00
2023-02-06T09:16:59.598Z,100.00
2023-02-06T09:19:26.363Z,100.00
2023-02-06T09:21:53.263Z,100.00
2023-02-06T09:24:19.803Z,100.00
2023-02-06T09:26:59.076Z,100.00
2023-02-06T09:29:31.565Z,100.00
2023-02-06T09:31:58.429Z,100.00
2023-02-06T09:34:26.259Z,100.00
2023-02-06T09:36:54.416Z,100.00
2023-02-06T09:39:20.767Z,100.00
2023-02-06T09:41:56.758Z,100.00
2023-02-06T09:44:39.891Z,100.00
2023-02-06T09:47:20.490Z,100.00
2023-02-06T09:49:59.253Z,100.00
2023-02-06T09:52:30.712Z,100.00
2023-02-06T09:55:06.958Z,99.16
2023-02-06T09:57:41.377Z,98.86
2023-02-06T10:00:47.583Z,99.23
2023-02-06T10:03:30.660Z,95.25
2023-02-06T10:06:21.478Z,96.95
2023-02-06T10:09:03.038Z,97.97
2023-02-06T10:11:45.045Z,97.08
2023-02-06T10:14:28.305Z,96.27
2023-02-06T10:17:04.665Z,93.95
2023-02-06T10:19:43.682Z,94.54
2023-02-06T10:22:16.724Z,94.98
2023-02-06T10:24:49.736Z,94.54
2023-02-06T10:27:17.194Z,93.87
2023-02-06T10:29:46.306Z,92.67
2023-02-06T10:32:34.556Z,91.03
2023-02-06T10:35:18.667Z,90.30
2023-02-06T10:38:22.913Z,88.94
2023-02-06T10:41:07.064Z,85.89
2023-02-06T10:43:55.749Z,84.76
2023-02-06T10:46:44.354Z,81.91
2023-02-06T10:49:15.079Z,81.54
2023-02-06T10:51:45.250Z,81.02
2023-02-06T10:54:18.421Z,82.15
2023-02-06T10:56:46.951Z,82.02
2023-02-06T10:59:25.177Z,80.62
2023-02-06T11:02:01.102Z,78.09
2023-02-06T11:04:36.418Z,77.39
2023-02-06T11:07:08.550Z,77.14
2023-02-06T11:09:34.980Z,76.87
2023-02-06T11:12:02.560Z,76.55
2023-02-06T11:14:35.340Z,73.73
2023-02-06T11:17:01.948Z,73.81
2023-02-06T11:19:40.286Z,71.47
2023-02-06T11:22:14.801Z,71.69
2023-02-06T11:25:28.206Z,72.85
2023-02-06T11:27:56.106Z,69.50
2023-02-06T11:30:37.957Z,68.66
2023-02-06T11:33:21.135Z,66.13
2023-02-06T11:35:54.550Z,64.82
2023-02-06T11:38:25.194Z,65.00
2023-02-06T11:41:00.716Z,63.53
2023-02-06T11:43:29.463Z,60.48
2023-02-06T11:46:26.859Z,62.61
2023-02-06T11:48:55.963Z,62.02
2023-02-06T11:51:23.917Z,59.97
2023-02-06T11:53:54.642Z,60.84
2023-02-06T11:56:21.416Z,60.52
2023-02-06T11:59:01.754Z,61.70
2023-02-06T12:01:28.336Z,60.47
2023-02-06T12:03:59.199Z,60.04
2023-02-06T12:06:40.067Z,60.04
2023-02-06T12:09:12.809Z,61.04
2023-02-06T12:11:45.643Z,61.23
2023-02-06T12:14:21.708Z,61.39
2023-02-06T12:16:50.211Z,62.71
2023-02-06T12:19:21.145Z,63.23
2023-02-06T12:21:54.092Z,62.22
2023-02-06T12:24:28.461Z,64.34
2023-02-06T12:26:55.776Z,63.84
2023-02-06T12:29:36.528Z,62.23
2023-02-06T12:32:14.651Z,61.76
2023-02-06T12:34:53.867Z,59.13
2023-02-06T12:37:39.695Z,59.44
2023-02-06T12:40:50.890Z,60.41
2023-02-06T12:43:18.903Z,62.74
2023-02-06T12:45:59.704Z,63.09
2023-02-06T12:48:37.738Z,61.55
2023-02-06T12:51:26.741Z,60.23
2023-02-06T12:54:04.087Z,61.82
2023-02-06T12:56:44.845Z,65.15
2023-02-06T12:59:29.484Z,67.68
2023-02-06T13:02:22.366Z,70.32
2023-02-06T13:04:50.616Z,70.69
2023-02-06T13:07:21.738Z,72.40
2023-02-06T13:10:06.418Z,71.01
2023-02-06T13:12:34.479Z,71.89
2023-02-06T13:15:05.818Z,72.81
2023-02-06T13:17:34.504Z,73.27
2023-02-06T13:20:07.315Z,73.98
2023-02-06T13:22:51.811Z,73.61
2023-02-06T13:25:30.217Z,74.58
2023-02-06T13:27:57.461Z,73.54
2023-02-06T13:30:23.776Z,74.78
2023-02-06T13:32:50.641Z,74.54
2023-02-06T13:35:24.313Z,74.65
2023-02-06T13:38:10.707Z,75.67
2023-02-06T13:40:37.240Z,77.28
2023-02-06T13:43:19.345Z,76.87
2023-02-06T13:45:59.226Z,76.19
2023-02-06T13:48:56.797Z,76.96
2023-02-06T13:51:52.695Z,77.25
2023-02-06T13:54:48.825Z,78.29
2023-02-06T13:57:26.642Z,79.13
2023-02-06T14:00:17.212Z,78.73
2023-02-06T14:02:54.085Z,79.35
2023-02-06T14:05:39.129Z,79.49
2023-02-06T14:08:19.854Z,80.33
2023-02-06T14:10:49.168Z,80.71
2023-02-06T14:13:28.971Z,80.48
2023-02-06T14:16:36.617Z,82.05
2023-02-06T14:19:24.974Z,82.72
2023-02-06T14:21:54.304Z,81.90
2023-02-06T14:24:22.095Z,81.30
2023-02-06T14:27:00.933Z,82.66
2023-02-06T14:29:41.458Z,82.62
2023-02-06T14:32:28.465Z,82.38
2023-02-06T14:35:19.196Z,81.70
2023-02-06T14:37:54.446Z,82.59
2023-02-06T14:40:38.944Z,83.03
2023-02-06T14:43:12.671Z,81.79
2023-02-06T14:45:42.735Z,80.60
2023-02-06T14:48:24.374Z,78.92
2023-02-06T14:50:56.435Z,80.46
2023-02-06T14:53:31.068Z,81.14
2023-02-06T14:56:13.635Z,80.25
2023-02-06T14:58:40.009Z,82.22
2023-02-06T15:01:17.506Z,81.74
2023-02-06T15:03:45.388Z,82.19
2023-02-06T15:06:15.106Z,82.21
2023-02-06T15:08:48.613Z,82.52
2023-02-06T15:11:32.184Z,82.47
2023-02-06T15:14:04.755Z,82.71
2023-02-06T15:16:32.850Z,82.38
2023-02-06T15:19:10.828Z,82.22
2023-02-06T15:21:38.283Z,82.80
2023-02-06T15:24:23.514Z,82.05
2023-02-06T15:27:01.380Z,83.17
2023-02-06T15:29:28.671Z,83.91
2023-02-06T15:32:01.213Z,83.09
2023-02-06T15:34:27.726Z,83.29
2023-02-06T15:36:54.236Z,83.18
2023-02-06T15:39:21.136Z,84.16
2023-02-06T15:41:49.783Z,85.29
2023-02-06T15:44:27.466Z,83.65
2023-02-06T15:46:56.453Z,83.40
2023-02-06T15:49:44.039Z,82.62
2023-02-06T15:52:12.216Z,83.36
2023-02-06T15:54:44.798Z,84.37
2023-02-06T15:57:16.974Z,86.15
2023-02-06T15:59:44.138Z,85.56
2023-02-06T16:02:37.793Z,83.95
2023-02-06T16:05:05.944Z,80.97
2023-02-06T16:07:35.761Z,77.72
2023-02-06T16:10:08.187Z,77.34
2023-02-06T16:12:35.991Z,76.99
2023-02-06T16:15:23.683Z,76.70
2023-02-06T16:17:50.025Z,77.27
2023-02-06T16:20:28.492Z,77.95
2023-02-06T16:22:57.084Z,79.52
2023-02-06T16:25:31.317Z,79.12
2023-02-06T16:27:59.057Z,80.09
2023-02-06T16:30:32.985Z,81.56
2023-02-06T16:33:09.405Z,81.07
2023-02-06T16:35:35.754Z,81.22
2023-02-06T16:38:02.063Z,79.58
2023-02-06T16:40:28.466Z,77.95
2023-02-06T16:42:54.916Z,76.91
2023-02-06T16:45:26.140Z,76.20
2023-02-06T16:47:53.433Z,75.66
2023-02-06T16:50:21.500Z,74.52
2023-02-06T16:52:50.906Z,74.46
2023-02-06T16:55:22.234Z,73.60
2023-02-06T16:57:52.859Z,73.80
2023-02-06T17:00:29.493Z,74.86
2023-02-06T17:02:57.356Z,75.00
2023-02-06T17:05:25.528Z,73.94
2023-02-06T17:07:52.452Z,73.74
2023-02-06T17:10:22.039Z,73.44
2023-02-06T17:12:49.196Z,73.74
2023-02-06T17:15:17.134Z,73.73
2023-02-06T17:17:44.264Z,73.71
2023-02-06T17:20:44.925Z,73.20
2023-02-06T17:23:11.770Z,73.67
2023-02-06T17:25:42.901Z,72.91
2023-02-06T17:28:12.793Z,72.83
2023-02-06T17:30:39.792Z,72.05
2023-02-06T17:33:07.008Z,73.44
2023-02-06T17:35:36.582Z,72.04
2023-02-06T17:38:05.079Z,71.92
2023-02-06T17:40:33.834Z,71.29
2023-02-06T17:43:03.867Z,71.66
2023-02-06T17:45:30.949Z,72.28
2023-02-06T17:47:57.244Z,72.75
2023-02-06T17:50:25.596Z,73.74
2023-02-06T17:52:55.402Z,73.16
2023-02-06T17:55:23.205Z,72.82
2023-02-06T17:57:50.667Z,73.27
2023-02-06T18:00:18.376Z,72.74
2023-02-06T18:02:45.024Z,73.23
2023-02-06T18:05:11.636Z,73.92
2023-02-06T18:07:38.975Z,73.80
2023-02-06T18:10:06.340Z,73.63
2023-02-06T18:12:32.781Z,74.69
2023-02-06T18:14:59.129Z,74.85
2023-02-06T18:17:25.728Z,75.11
2023-02-06T18:19:52.359Z,76.00
2023-02-06T18:22:21.412Z,77.10
2023-02-06T18:24:49.090Z,77.03
2023-02-06T18:27:16.350Z,77.77
2023-02-06T18:29:50.094Z,77.65
2023-02-06T18:32:18.092Z,78.04
2023-02-06T18:34:44.507Z,77.58
2023-02-06T18:37:10.840Z,78.59
2023-02-06T18:39:38.123Z,78.45
2023-02-06T18:42:23.297Z,79.28
2023-02-06T18:44:49.765Z,79.35
2023-02-06T18:47:17.440Z,79.17
2023-02-06T18:49:43.777Z,79.29
2023-02-06T18:52:10.157Z,78.85
2023-02-06T18:54:36.750Z,78.64
2023-02-06T18:57:10.477Z,77.79
2023-02-06T18:59:39.134Z,79.20
2023-02-06T19:02:05.616Z,79.79
2023-02-06T19:04:34.344Z,78.88
2023-02-06T19:07:00.694Z,78.86
2023-02-06T19:09:27.073Z,80.02
2023-02-06T19:11:53.765Z,81.11
2023-02-06T19:14:22.464Z,81.00
2023-02-06T19:16:50.777Z,79.65
2023-02-06T19:19:17.727Z,80.26
2023-02-06T19:21:44.576Z,80.60
2023-02-06T19:24:15.710Z,81.01
2023-02-06T19:26:42.251Z,81.46
2023-02-06T19:29:09.534Z,82.04
2023-02-06T19:31:38.897Z,82.73
2023-02-06T19:34:05.264Z,82.07
2023-02-06T19:36:31.772Z,82.98
2023-02-06T19:39:01.237Z,82.54
2023-02-06T19:41:29.522Z,83.92
2023-02-06T19:43:56.801Z,82.83
2023-02-06T19:46:25.910Z,83.70
2023-02-06T19:48:54.010Z,84.52
2023-02-06T19:51:28.754Z,84.85
2023-02-06T19:53:56.805Z,83.72
2023-02-06T19:56:25.728Z,84.31
2023-02-06T19:58:59.430Z,83.39
2023-02-06T20:01:29.421Z,84.00
2023-02-06T20:03:57.609Z,83.21
2023-02-06T20:06:23.953Z,84.11
2023-02-06T20:08:50.314Z,84.62
2023-02-06T20:11:20.706Z,83.09
2023-02-06T20:13:47.975Z,84.43
2023-02-06T20:16:17.687Z,85.31
2023-02-06T20:18:44.250Z,85.80
2023-02-06T20:21:31.509Z,85.34
2023-02-06T20:24:00.412Z,85.51
2023-02-06T20:26:29.980Z,84.70
2023-02-06T20:28:56.667Z,83.64
2023-02-06T20:31:23.418Z,84.12
2023-02-06T20:33:50.220Z,83.30
2023-02-06T20:36:19.874Z,83.49
2023-02-06T20:38:51.275Z,84.42
2023-02-06T20:41:20.834Z,84.37
2023-02-06T20:43:48.123Z,83.92
2023-02-06T20:46:18.213Z,83.35
2023-02-06T20:48:46.051Z,83.76
2023-02-06T20:51:14.046Z,84.14
2023-02-06T20:53:40.965Z,84.56
2023-02-06T20:56:16.825Z,83.53
2023-02-06T20:58:44.362Z,84.15
2023-02-06T21:01:23.032Z,84.89
2023-02-06T21:03:50.699Z,85.75
2023-02-06T21:06:17.054Z,84.65
2023-02-06T21:08:46.534Z,85.31
2023-02-06T21:11:13.404Z,84.67
2023-02-06T21:13:40.757Z,84.89
2023-02-06T21:16:08.127Z,85.55
2023-02-06T21:18:34.497Z,85.30
2023-02-06T21:21:13.640Z,85.74
2023-02-06T21:23:41.766Z,85.45
2023-02-06T21:26:10.644Z,84.61
2023-02-06T21:28:38.280Z,85.10
2023-02-06T21:31:08.104Z,85.25
2023-02-06T21:33:35.041Z,83.36
2023-02-06T21:36:06.868Z,83.31
2023-02-06T21:38:34.607Z,84.32
2023-02-06T21:41:13.378Z,84.01
2023-02-06T21:43:40.255Z,83.69
2023-02-06T21:46:06.911Z,84.40
2023-02-06T21:48:34.051Z,84.02
2023-02-06T21:51:11.831Z,84.52
2023-02-06T21:53:38.784Z,87.19
2023-02-06T21:56:07.324Z,87.30
2023-02-06T21:58:34.094Z,86.79
2023-02-06T22:01:00.696Z,86.74
2023-02-06T22:03:27.192Z,85.36
2023-02-06T22:05:53.547Z,84.47
2023-02-06T22:08:20.423Z,85.60
2023-02-06T22:10:46.753Z,85.16
2023-02-06T22:13:13.037Z,84.61
2023-02-06T22:15:39.767Z,84.54
2023-02-06T22:18:06.461Z,83.93
2023-02-06T22:20:32.841Z,84.16
2023-02-06T22:22:59.149Z,83.63
2023-02-06T22:25:26.513Z,83.69
2023-02-06T22:27:54.562Z,83.01
2023-02-06T22:30:21.096Z,82.44
2023-02-06T22:32:47.452Z,81.93
2023-02-06T22:35:13.779Z,81.54
2023-02-06T22:37:40.167Z,82.19
2023-02-06T22:40:07.170Z,81.63
2023-02-06T22:42:34.568Z,81.67
2023-02-06T22:45:00.898Z,81.06
2023-02-06T22:47:27.275Z,81.39
2023-02-06T22:49:53.602Z,82.14
2023-02-06T22:52:38.352Z,81.31
2023-02-06T22:55:05.648Z,80.93
2023-02-06T22:57:33.390Z,81.41
2023-02-06T22:59:59.693Z,81.82
2023-02-06T23:02:26.037Z,82.70
2023-02-06T23:04:52.344Z,82.74
2023-02-06T23:07:18.659Z,81.78
2023-02-06T23:09:44.962Z,81.27
2023-02-06T23:12:11.631Z,81.01
2023-02-06T23:14:37.967Z,80.12
2023-02-06T23:17:04.357Z,80.84
2023-02-06T23:19:31.306Z,80.29
2023-02-06T23:21:57.811Z,81.41
2023-02-06T23:24:24.214Z,81.53
2023-02-06T23:26:53.111Z,81.19
2023-02-06T23:29:20.669Z,81.59
2023-02-06T23:31:47.549Z,81.90
2023-02-06T23:34:14.795Z,82.46
2023-02-06T23:36:41.526Z,82.44
2023-02-06T23:39:07.849Z,82.95
2023-02-06T23:41:34.422Z,82.08
2023-02-06T23:44:06.299Z,82.24
2023-02-06T23:46:34.889Z,84.00
2023-02-06T23:49:01.253Z,84.41
2023-02-06T23:51:27.957Z,84.53
2023-02-06T23:53:54.352Z,83.93
2023-02-06T23:56:26.464Z,83.84
2023-02-06T23:58:54.136Z,83.84
